Time;durP1;ratioP1;P1;durP2;ratioP2;P2;SDS_P1;SDS_P2;PMS_P1;PMS_P2;Temp;Humidity;BMP_temperature;BMP_pressure;BME280_temperature;BME280_humidity;BME280_pressure;Samples;Min_cycle;Max_cycle;Signal;HPM_P1;HPM_P2
2022/11/16 00:01:38;;;;;;;;;47.75;37.75;;;;;13.55;80.62;100941.09;146617;567;46013;-78
2022/11/16 00:04:36;;;;;;;;;48.50;39.00;;;;;13.54;80.38;100936.69;146617;635;47014;-78
2022/11/16 00:07:35;;;;;;;;;50.50;40.25;;;;;13.52;80.47;100924.44;146617;564;46020;-73
2022/11/16 00:10:40;;;;;;;;;50.00;40.75;;;;;10.86;80.16;100473.34;146616;616;46016;-74
2022/11/16 00:13:45;;;;;;;;;51.50;39.25;;;;;13.40;80.72;100914.41;146617;600;46020;-74
2022/11/16 00:16:43;;;;;;;;;53.25;39.50;;;;;13.33;80.95;100913.25;146618;600;46013;-74
2022/11/16 00:19:54;;;;;;;;;48.00;38.50;;;;;13.26;80.79;100911.19;146618;575;46012;-73
2022/11/16 00:22:54;;;;;;;;;45.00;35.50;;;;;13.21;80.90;100909.16;146617;652;46016;-73
2022/11/16 00:25:52;;;;;;;;;46.25;36.75;;;;;13.21;80.97;100904.87;146617;630;46021;-73
2022/11/16 00:28:44;;;;;;;;;45.75;38.00;;;;;13.19;81.04;100906.50;146617;594;46016;-70
2022/11/16 00:31:48;;;;;;;;;42.50;34.75;;;;;13.12;80.65;100907.97;146617;569;46020;-71
2022/11/16 00:34:55;;;;;;;;;;;;;;;;;;;;;
2022/11/16 00:38:08;;;;;;;;;44.25;37.50;;;;;12.99;80.96;100909.94;146619;575;45020;-71
2022/11/16 00:41:05;;;;;;;;;52.50;41.00;;;;;12.91;81.19;100912.22;146619;573;46012;-71
2022/11/16 00:44:10;;;;;;;;;49.00;41.50;;;;;12.85;81.43;100911.94;146617;624;46012;-70
2022/11/16 00:47:17;;;;;;;;;50.50;40.25;;;;;12.77;81.68;100905.50;146617;588;46013;-71
2022/11/16 00:50:26;;;;;;;;;46.00;35.75;;;;;9.89;81.72;100418.59;146619;626;46010;-70
2022/11/16 00:53:26;;;;;;;;;42.25;34.50;;;;;12.64;81.82;100902.31;146616;564;46012;-70
2022/11/16 00:56:24;;;;;;;;;45.50;38.50;;;;;12.55;82.06;100885.41;146619;574;46010;-70
2022/11/16 00:59:32;;;;;;;;;44.00;37.75;;;;;12.60;81.71;100891.72;146619;563;46012;-70
2022/11/16 01:02:28;;;;;;;;;47.50;38.75;;;;;12.57;81.90;100892.47;146619;622;46021;-70
2022/11/16 01:05:27;;;;;;;;;48.25;39.00;;;;;12.56;82.10;100887.22;146614;650;46016;-70
2022/11/16 01:08:28;;;;;;;;;43.75;35.75;;;;;12.57;82.31;100892.47;146622;580;46010;-70
2022/11/16 01:14:54;;;;;;;;;;;;;;;;;;;;;
2022/11/16 01:17:51;;;;;;;;;47.00;38.75;;;;;12.47;82.17;100895.47;146612;581;46017;-71
2022/11/16 01:20:51;;;;;;;;;42.75;35.00;;;;;12.39;81.98;100889.91;146618;643;46020;-71
2022/11/16 01:23:47;;;;;;;;;46.00;36.50;;;;;12.36;82.55;100897.56;146614;606;46012;-71
2022/11/16 01:26:44;;;;;;;;;43.50;34.75;;;;;12.34;82.10;100894.03;146619;675;46020;-75
2022/11/16 01:29:39;;;;;;;;;48.00;37.50;;;;;12.32;82.28;100890.44;146612;609;46014;-74
2022/11/16 01:32:32;;;;;;;;;42.75;33.75;;;;;12.32;82.18;100894.75;146620;571;46010;-74
2022/11/16 01:35:31;;;;;;;;;44.50;35.50;;;;;12.31;82.09;100903.41;146616;578;46035;-75
2022/11/16 01:38:37;;;;;;;;;43.50;34.50;;;;;12.30;82.07;100899.88;146613;634;46020;-72
2022/11/16 01:41:34;;;;;;;;;43.50;35.75;;;;;12.33;82.14;100900.03;146613;570;46012;-73
2022/11/16 01:45:01;;;;;;;;;42.50;32.00;;;;;9.41;81.77;100386.00;146618;642;46020;-71
2022/11/16 01:47:58;;;;;;;;;38.50;32.00;;;;;12.27;82.50;100886.72;146612;646;46915;-75
2022/11/16 01:51:13;;;;;;;;;40.75;34.00;;;;;12.24;81.79;100879.72;146619;664;46020;-73
2022/11/16 01:54:11;;;;;;;;;44.50;36.00;;;;;12.23;81.84;100882.22;146606;633;46928;-73
2022/11/16 01:57:09;;;;;;;;;42.00;32.75;;;;;12.20;82.41;100867.34;146618;663;46020;-76
2022/11/16 02:00:13;;;;;;;;;40.75;33.50;;;;;12.22;82.41;100865.72;146615;640;46016;-73
2022/11/16 02:03:05;;;;;;;;;46.50;34.75;;;;;12.27;82.00;100859.84;146618;611;46010;-74
2022/11/16 02:06:49;;;;;;;;;43.00;34.00;;;;;9.57;81.36;100388.53;146616;588;46014;-73
2022/11/16 02:10:24;;;;;;;;;35.25;31.00;;;;;12.22;81.44;100857.03;146618;622;46020;-74
2022/11/16 02:13:38;;;;;;;;;38.50;33.00;;;;;12.22;81.34;100851.84;146618;570;46910;-73
2022/11/16 02:17:15;;;;;;;;;35.75;30.75;;;;;12.23;81.48;100849.31;146621;572;45021;-73
2022/11/16 02:21:04;;;;;;;;;35.75;28.50;;;;;9.38;81.06;100334.09;146612;596;48012;-73
2022/11/16 02:24:51;;;;;;;;;30.00;29.25;;;;;9.38;80.91;100339.28;146620;591;46021;-76
2022/11/16 02:28:29;;;;;;;;;37.00;30.75;;;;;9.42;80.57;100346.38;146617;609;46014;-75
2022/11/16 02:31:28;;;;;;;;;31.75;28.75;;;;;12.16;80.86;100830.75;146620;649;46012;-74
2022/11/16 02:34:26;;;;;;;;;41.00;32.50;;;;;12.07;81.21;100835.53;146620;566;46014;-74
2022/11/16 02:37:37;;;;;;;;;39.75;32.25;;;;;11.98;81.39;100826.47;146620;584;46010;-78
2022/11/16 02:40:45;;;;;;;;;35.50;28.75;;;;;11.94;81.84;100821.97;146617;665;46012;-72
2022/11/16 02:44:06;;;;;;;;;;;;;;;;;;;;;
2022/11/16 02:47:06;;;;;;;;;34.25;29.00;;;;;11.83;81.88;100814.44;146616;594;46012;-74
2022/11/16 02:50:23;;;;;;;;;39.75;34.00;;;;;11.81;81.74;100814.38;146620;624;46010;-74
2022/11/16 02:53:34;;;;;;;;;;;;;;;;;;;;;
2022/11/16 02:56:45;;;;;;;;;36.00;29.25;;;;;11.73;81.45;100816.59;146622;571;46010;-74
2022/11/16 03:00:28;;;;;;;;;35.50;30.50;;;;;8.99;81.15;100354.53;146616;618;46024;-73
2022/11/16 03:03:53;;;;;;;;;34.25;30.25;;;;;11.67;81.53;100815.41;146617;611;46021;-75
2022/11/16 03:06:51;;;;;;;;;37.75;29.75;;;;;11.65;82.17;100817.03;146616;630;46917;-75
2022/11/16 03:09:54;;;;;;;;;38.25;31.25;;;;;11.62;82.63;100807.41;146617;564;46021;-76
2022/11/16 03:12:52;;;;;;;;;37.25;32.50;;;;;11.59;82.55;100808.94;146613;579;46914;-74
2022/11/16 03:15:58;;;;;;;;;34.50;30.00;;;;;11.57;82.02;100814.97;146618;564;46021;-76
2022/11/16 03:19:01;;;;;;;;;29.50;27.50;;;;;11.53;82.20;100807.84;146616;592;46016;-79
2022/11/16 03:22:06;;;;;;;;;36.00;32.25;;;;;11.55;82.34;100806.19;146619;582;46020;-82
2022/11/16 03:25:15;;;;;;;;;35.75;31.50;;;;;11.60;82.67;100802.97;146617;598;46014;-81
2022/11/16 03:28:57;;;;;;;;;30.00;27.50;;;;;10.08;81.95;100531.78;146618;639;46010;-80
2022/11/16 03:32:15;;;;;;;;;;;;;;;;;;;;;
2022/11/16 03:35:30;;;;;;;;;33.00;30.25;;;;;11.62;81.91;100790.91;146616;688;46020;-81
2022/11/16 03:38:28;;;;;;;;;31.25;27.00;;;;;11.56;81.78;100799.31;146614;590;46017;-81
2022/11/16 03:41:28;;;;;;;;;32.50;26.50;;;;;11.50;81.73;100792.13;146618;574;46010;-81
2022/11/16 03:44:25;;;;;;;;;38.00;29.00;;;;;11.45;82.22;100782.31;146615;623;46016;-75
2022/11/16 03:47:36;;;;;;;;;29.25;28.00;;;;;11.39;82.23;100777.72;146618;611;46020;-75
2022/11/16 03:50:34;;;;;;;;;26.00;25.50;;;;;11.33;82.17;100777.41;146615;566;46016;-75
2022/11/16 03:53:28;;;;;;;;;31.00;29.00;;;;;11.27;82.28;100775.41;146613;620;46021;-76
2022/11/16 03:56:26;;;;;;;;;34.00;28.50;;;;;11.24;82.28;100777.84;146619;574;45016;-73
2022/11/16 03:59:18;;;;;;;;;35.50;27.50;;;;;11.22;82.98;100778.63;146617;578;46020;-73
2022/11/16 04:02:14;;;;;;;;;37.25;29.00;;;;;11.16;82.75;100786.97;146617;597;46012;-73
2022/11/16 04:25:46;;;;;;;;;28.25;24.25;;;;;11.03;83.48;100762.13;146618;576;46010;-73
2022/11/16 04:28:39;;;;;;;;;38.25;29.50;;;;;11.05;83.01;100763.06;146616;585;46016;-74
2022/11/16 04:38:07;;;;;;;;;38.75;32.00;;;;;11.06;82.84;100756.22;146621;601;46012;-73
2022/11/16 04:41:05;;;;;;;;;36.75;30.00;;;;;11.08;83.26;100755.44;146620;615;46012;-73
2022/11/16 04:44:17;;;;;;;;;33.25;28.50;;;;;11.14;82.66;100772.16;146620;590;46010;-74
2022/11/16 04:47:09;;;;;;;;;36.00;28.75;;;;;11.12;82.25;100765.97;146617;620;46014;-73
2022/11/16 04:50:07;;;;;;;;;37.25;30.75;;;;;11.09;81.51;100766.75;146618;583;46020;-73
2022/11/16 04:53:10;;;;;;;;;42.50;34.75;;;;;11.05;81.92;100764.78;146618;620;46014;-74
2022/11/16 04:56:02;;;;;;;;;38.50;32.50;;;;;11.01;82.29;100762.87;146615;635;46020;-74
2022/11/16 04:58:57;;;;;;;;;43.25;32.75;;;;;10.97;82.94;100756.63;146613;725;46016;-72
2022/11/16 05:02:07;;;;;;;;;43.75;35.50;;;;;10.95;82.79;100758.25;146619;695;46010;-79
2022/11/16 05:05:06;;;;;;;;;39.75;32.00;;;;;10.95;83.36;100757.38;146615;577;46914;-79
2022/11/16 05:08:05;;;;;;;;;37.50;29.50;;;;;10.96;83.26;100754.84;146612;575;46021;-78
2022/11/16 05:10:58;;;;;;;;;32.75;29.50;;;;;10.94;83.87;100751.28;146616;608;46016;-71
2022/11/16 05:14:06;;;;;;;;;34.00;28.00;;;;;10.90;84.11;100744.16;146619;610;46020;-76
2022/11/16 05:17:06;;;;;;;;;39.00;33.00;;;;;10.89;83.42;100738.91;146618;650;46016;-76
2022/11/16 05:26:55;;;;;;;;;35.50;29.75;;;;;10.93;83.43;100749.50;146617;618;46020;-71
2022/11/16 05:30:28;;;;;;;;;29.50;28.50;;;;;8.10;82.96;100252.56;146616;579;46017;-71
2022/11/16 05:33:26;;;;;;;;;35.50;30.25;;;;;11.04;83.66;100756.13;146619;612;46020;-75
2022/11/16 05:36:21;;;;;;;;;30.25;29.50;;;;;11.14;83.43;100752.28;146618;576;46919;-75
2022/11/16 05:39:19;;;;;;;;;37.00;30.25;;;;;11.22;83.01;100756.16;146620;609;46012;-74
2022/11/16 05:42:15;;;;;;;;;31.50;28.75;;;;;11.30;83.25;100759.09;146617;599;46014;-75
2022/11/16 05:45:19;;;;;;;;;38.75;31.00;;;;;11.38;82.33;100757.78;146616;601;46010;-74
2022/11/16 05:48:12;;;;;;;;;34.00;30.00;;;;;11.45;83.10;100761.56;146619;582;46918;-75
2022/11/16 05:51:19;;;;;;;;;36.00;30.75;;;;;8.73;82.73;100273.06;146621;653;46029;-71
2022/11/16 05:54:11;;;;;;;;;40.00;32.00;;;;;11.72;83.90;100764.59;146616;566;46016;-72
2022/11/16 05:57:03;;;;;;;;;40.75;31.50;;;;;12.25;85.36;100758.41;146620;566;46010;-72
2022/11/16 05:59:56;;;;;;;;;41.25;32.00;;;;;12.97;84.72;100753.72;146619;622;46014;-74
2022/11/16 06:02:48;;;;;;;;;44.50;32.25;;;;;13.72;81.22;100751.56;146611;636;47020;-73
2022/11/16 06:05:40;;;;;;;;;39.25;33.00;;;;;14.44;78.99;100756.00;146619;598;46013;-78
2022/11/16 06:08:34;;;;;;;;;31.00;29.50;;;;;15.17;78.63;100753.34;146620;579;46021;-73
2022/11/16 06:11:41;;;;;;;;;32.75;30.75;;;;;13.49;75.18;100305.25;146616;572;46016;-73
2022/11/16 06:14:42;;;;;;;;;36.50;30.50;;;;;16.80;72.24;100742.53;146619;590;46010;-73
2022/11/16 06:17:34;;;;;;;;;33.00;29.50;;;;;17.47;70.43;100740.69;146619;608;46033;-73
2022/11/16 06:20:21;;;;;;;;;35.50;30.25;;;;;18.00;66.34;100741.91;146711;554;45022;-73
2022/11/16 06:23:32;;;;;;;;;28.25;25.75;;;;;18.51;67.57;100742.94;146620;564;46012;-73
2022/11/16 06:26:27;;;;;;;;;28.25;25.00;;;;;18.93;66.05;100741.97;146623;590;46010;-82
2022/11/16 06:29:28;;;;;;;;;33.75;30.00;;;;;19.24;64.51;100735.50;146619;624;46030;-75
2022/11/16 06:32:30;;;;;;;;;30.00;29.00;;;;;19.33;63.72;100734.78;146623;589;46020;-70
2022/11/16 06:35:30;;;;;;;;;32.75;29.00;;;;;19.28;62.87;100734.72;146618;578;46014;-80
2022/11/16 06:38:19;;;;;;;;;32.00;30.00;;;;;19.13;61.85;100734.47;146703;563;46022;-80
2022/11/16 06:41:38;;;;;;;;;31.25;27.50;;;;;18.84;63.49;100729.56;146615;615;46031;-80
2022/11/16 06:44:45;;;;;;;;;39.75;33.25;;;;;18.58;64.21;100738.69;146616;564;46020;-81
2022/11/16 06:47:49;;;;;;;;;41.75;33.50;;;;;18.28;65.82;100736.34;146611;645;46918;-80
2022/11/16 06:50:50;;;;;;;;;38.50;31.50;;;;;18.09;65.93;100738.59;146613;652;46021;-81
2022/11/16 06:53:38;;;;;;;;;41.25;33.75;;;;;18.03;65.99;100742.84;146701;575;46014;-80
2022/11/16 06:56:37;;;;;;;;;39.50;34.00;;;;;18.08;66.91;100733.34;146612;581;46016;-80
2022/11/16 06:59:37;;;;;;;;;39.50;32.50;;;;;18.20;66.88;100739.72;146617;636;46020;-80
2022/11/16 07:02:41;;;;;;;;;44.00;34.25;;;;;18.32;66.41;100741.72;146609;612;46016;-81
2022/11/16 07:05:38;;;;;;;;;48.00;35.25;;;;;18.34;65.89;100732.09;146616;684;46021;-80
2022/11/16 07:08:31;;;;;;;;;42.75;34.50;;;;;18.38;65.57;100738.28;146614;577;45017;-79
2022/11/16 07:11:23;;;;;;;;;45.25;35.00;;;;;18.33;65.94;100730.34;146615;569;46020;-80
2022/11/16 07:14:17;;;;;;;;;42.75;35.25;;;;;18.24;65.40;100724.91;146610;592;46016;-80
2022/11/16 07:17:18;;;;;;;;;42.25;32.00;;;;;18.15;66.46;100724.72;146614;602;46020;-81
2022/11/16 07:20:12;;;;;;;;;44.75;37.00;;;;;18.14;66.67;100722.97;146610;733;46016;-80
2022/11/16 07:23:16;;;;;;;;;45.75;37.00;;;;;18.15;66.61;100715.09;146614;564;46021;-80
2022/11/16 07:26:23;;;;;;;;;42.50;34.00;;;;;18.17;67.05;100715.16;146611;571;46016;-80
2022/11/16 07:29:23;;;;;;;;;51.00;41.75;;;;;18.22;64.96;100721.34;146618;583;46011;-79
2022/11/16 07:32:16;;;;;;;;;49.50;38.25;;;;;18.13;67.00;100711.59;146613;569;46016;-80
2022/11/16 07:35:19;;;;;;;;;48.75;38.75;;;;;18.24;67.26;100709.16;146612;580;47012;-81
2022/11/16 07:38:17;;;;;;;;;52.00;40.75;;;;;18.35;66.92;100711.97;146609;569;46012;-79
2022/11/16 07:41:21;;;;;;;;;47.50;38.25;;;;;18.48;66.39;100705.25;146614;581;46020;-79
2022/11/16 07:44:15;;;;;;;;;50.75;39.25;;;;;18.53;65.40;100696.56;146612;627;46017;-81
2022/11/16 07:47:10;;;;;;;;;47.50;39.25;;;;;18.54;65.89;100708.00;146613;571;46020;-79
2022/11/16 07:50:17;;;;;;;;;;;;;;;;;;;;;
2022/11/16 07:53:18;;;;;;;;;42.00;35.25;;;;;18.56;65.53;100695.75;146615;616;46010;-79
2022/11/16 07:56:39;;;;;;;;;48.50;39.75;;;;;18.55;67.08;100702.75;146613;625;46012;-78
2022/11/16 07:59:32;;;;;;;;;48.00;38.50;;;;;18.61;66.90;100697.63;146612;606;46915;-78
2022/11/16 08:02:25;;;;;;;;;50.00;38.50;;;;;18.76;66.53;100702.28;146611;583;46016;-80
2022/11/16 08:05:20;;;;;;;;;47.75;37.50;;;;;18.96;66.51;100696.50;146617;592;45020;-80
2022/11/16 08:08:22;;;;;;;;;48.00;39.00;;;;;19.18;65.94;100695.09;146612;564;46012;-78
2022/11/16 08:11:19;;;;;;;;;48.50;37.00;;;;;19.30;65.47;100693.53;146614;681;46010;-80
2022/11/16 08:14:24;;;;;;;;;53.00;40.25;;;;;19.44;63.98;100690.22;146609;637;46913;-79
2022/11/16 08:17:29;;;;;;;;;41.75;32.00;;;;;19.50;63.82;100683.31;146616;649;46020;-78
2022/11/16 08:20:27;;;;;;;;;47.50;38.00;;;;;19.55;63.70;100683.38;146610;619;47016;-80
2022/11/16 08:23:24;;;;;;;;;47.75;36.00;;;;;19.60;63.22;100677.31;146614;606;46021;-78
2022/11/16 08:26:29;;;;;;;;;51.00;38.25;;;;;19.68;65.08;100680.06;146613;607;46014;-79
2022/11/16 08:29:24;;;;;;;;;49.00;38.00;;;;;19.85;64.38;100677.69;146612;588;46011;-80
2022/11/16 08:32:30;;;;;;;;;;;;;;;;;;;;;
2022/11/16 08:35:27;;;;;;;;;47.50;39.50;;;;;20.04;62.58;100678.78;146613;576;46010;-78
2022/11/16 08:38:27;;;;;;;;;42.75;35.50;;;;;20.08;63.60;100680.59;146611;599;46016;-79
2022/11/16 08:41:21;;;;;;;;;46.00;36.50;;;;;20.22;63.74;100686.03;146615;624;46020;-78
2022/11/16 08:44:22;;;;;;;;;45.00;37.25;;;;;20.35;62.32;100680.03;146612;653;46016;-78
2022/11/16 08:47:15;;;;;;;;;48.25;40.50;;;;;20.40;60.60;100677.41;146616;626;46010;-77
2022/11/16 08:50:17;;;;;;;;;43.50;35.00;;;;;20.36;62.00;100676.50;146613;584;46012;-78
2022/11/16 08:53:26;;;;;;;;;41.75;31.75;;;;;19.19;64.02;100466.47;146620;583;46010;-79
2022/11/16 08:56:28;;;;;;;;;43.50;36.75;;;;;20.51;62.36;100667.87;146621;572;46012;-78
2022/11/16 08:59:33;;;;;;;;;41.75;34.25;;;;;20.59;62.12;100670.63;146622;632;46010;-79
2022/11/16 09:02:33;;;;;;;;;38.75;29.75;;;;;20.65;62.16;100662.78;146617;570;46012;-78
2022/11/16 09:05:30;;;;;;;;;44.25;35.25;;;;;20.84;62.33;100669.06;146622;583;46010;-80
2022/11/16 09:08:29;;;;;;;;;33.00;29.75;;;;;21.02;60.41;100661.31;146617;587;46014;-78
2022/11/16 09:11:26;;;;;;;;;31.50;29.25;;;;;21.19;59.66;100662.34;146620;599;48010;-77
2022/11/16 09:14:22;;;;;;;;;34.75;30.25;;;;;21.27;60.86;100665.00;146619;657;46014;-78
2022/11/16 09:17:23;;;;;;;;;38.25;31.75;;;;;21.34;60.74;100661.56;146620;569;46020;-78
2022/11/16 09:20:22;;;;;;;;;38.50;31.25;;;;;21.47;59.81;100662.56;146617;669;46013;-77
2022/11/16 09:23:40;;;;;;;;;39.75;31.50;;;;;20.35;58.61;100445.66;146621;570;46014;-78
2022/11/16 09:26:35;;;;;;;;;32.50;30.00;;;;;21.58;58.83;100652.03;146616;570;46016;-79
2022/11/16 09:29:27;;;;;;;;;25.50;24.75;;;;;21.62;55.25;100644.16;146622;574;46020;-77
2022/11/16 09:32:36;;;;;;;;;;;;;;;;;;;;;
2022/11/16 09:35:32;;;;;;;;;28.00;25.00;;;;;21.51;59.33;100632.66;146623;633;46020;-78
2022/11/16 09:38:37;;;;;;;;;;;;;;;;;;;;;
2022/11/16 09:42:21;;;;;;;;;29.50;25.00;;;;;20.77;58.19;100447.69;146615;585;48020;-78
2022/11/16 09:46:20;;;;;;;;;;;;;;;;;;;;;
2022/11/16 09:49:46;;;;;;;;;30.00;27.50;;;;;21.91;55.38;100611.72;146621;571;46010;-77
2022/11/16 09:52:56;;;;;;;;;28.25;25.00;;;;;21.88;54.80;100609.94;146614;652;46016;-77
2022/11/16 09:56:00;;;;;;;;;23.25;22.00;;;;;21.86;58.52;100592.34;146617;564;45020;-76
2022/11/16 09:59:35;;;;;;;;;21.50;21.25;;;;;21.88;56.55;100583.56;146609;588;46017;-76
2022/11/16 10:02:51;;;;;;;;;21.50;20.00;;;;;21.95;56.28;100581.81;146615;632;46010;-77
2022/11/16 10:06:26;;;;;;;;;25.25;20.50;;;;;22.06;58.83;100572.16;146605;569;47913;-75
2022/11/16 10:09:24;;;;;;;;;26.50;24.00;;;;;22.12;52.40;100564.25;146615;574;46020;-76
2022/11/16 10:12:45;;;;;;;;;25.25;19.50;;;;;20.19;56.72;100236.69;146612;580;46017;-78
2022/11/16 10:16:18;;;;;;;;;26.25;24.00;;;;;21.16;55.98;100405.69;146614;618;46020;-77
2022/11/16 10:19:37;;;;;;;;;27.75;25.75;;;;;21.92;54.44;100540.44;146711;564;46013;-75
2022/11/16 10:23:23;;;;;;;;;26.50;22.25;;;;;20.60;55.98;100348.38;146616;598;46016;-78
2022/11/16 10:27:14;;;;;;;;;21.75;19.25;;;;;21.51;56.43;100527.12;146621;565;46021;-77
2022/11/16 10:30:31;;;;;;;;;25.25;24.00;;;;;20.34;59.36;100342.94;146619;579;46014;-77
2022/11/16 10:33:35;;;;;;;;;25.75;22.00;;;;;21.28;57.65;100528.75;146624;593;46010;-77
2022/11/16 10:36:41;;;;;;;;;25.25;23.50;;;;;21.34;58.34;100527.06;146620;583;46012;-79
2022/11/16 10:39:39;;;;;;;;;26.00;23.75;;;;;21.52;57.84;100515.69;146625;663;45020;-78
2022/11/16 10:42:47;;;;;;;;;27.50;23.50;;;;;21.72;58.35;100512.25;146616;625;46016;-78
2022/11/16 10:46:03;;;;;;;;;22.50;20.00;;;;;21.96;58.72;100503.47;146621;670;46010;-77
2022/11/16 10:49:44;;;;;;;;;24.25;21.00;;;;;21.04;58.33;100314.25;146618;573;46014;-78
2022/11/16 10:52:36;;;;;;;;;27.75;23.25;;;;;22.28;54.04;100498.28;146620;596;46020;-78
2022/11/16 10:55:53;;;;;;;;;21.75;19.50;;;;;22.36;53.69;100494.72;146616;564;46016;-78
2022/11/16 10:59:23;;;;;;;;;19.25;19.00;;;;;21.28;57.18;100304.59;146624;601;46010;-79
2022/11/16 11:02:52;;;;;;;;;19.00;18.00;;;;;22.08;57.79;100416.37;146618;592;47012;-79
2022/11/16 11:06:16;;;;;;;;;22.75;20.50;;;;;22.41;56.83;100459.50;146622;672;46020;-78
2022/11/16 11:09:42;;;;;;;;;17.75;16.50;;;;;21.49;56.68;100293.22;146619;579;46015;-78
2022/11/16 11:12:59;;;;;;;;;20.75;17.50;;;;;22.50;56.02;100462.16;146620;678;46012;-76
2022/11/16 11:16:16;;;;;;;;;20.00;16.50;;;;;22.58;55.66;100449.78;146619;584;46910;-77
2022/11/16 11:19:43;;;;;;;;;19.75;17.75;;;;;21.62;58.20;100272.13;146635;564;45021;-77
2022/11/16 11:22:38;;;;;;;;;15.50;14.75;;;;;22.81;55.39;100449.72;146634;579;45018;-77
2022/11/16 11:25:52;;;;;;;;;18.50;17.25;;;;;22.76;56.15;100447.09;146639;661;44045;-77
2022/11/16 11:29:10;;;;;;;;;15.25;14.50;;;;;21.63;57.36;100289.72;146634;672;45016;-75
2022/11/16 11:32:21;;;;;;;;;19.50;15.75;;;;;21.03;58.62;100250.97;146640;631;45010;-76
2022/11/16 11:35:29;;;;;;;;;16.25;14.75;;;;;21.85;59.18;100438.38;146634;564;45917;-77
2022/11/16 11:38:32;;;;;;;;;16.25;14.50;;;;;21.86;58.57;100428.69;146638;645;45020;-74
2022/11/16 11:41:53;;;;;;;;;20.00;16.50;;;;;21.93;59.78;100430.44;146639;593;44918;-78
2022/11/16 11:45:13;;;;;;;;;18.50;18.00;;;;;22.08;58.75;100408.44;146639;634;45020;-76
2022/11/16 11:48:30;;;;;;;;;16.00;15.00;;;;;22.29;56.97;100412.84;146631;696;46017;-76
2022/11/16 11:51:48;;;;;;;;;17.00;15.25;;;;;22.41;56.13;100401.41;146637;625;45020;-78
2022/11/16 11:54:47;;;;;;;;;16.50;15.00;;;;;22.54;54.45;100400.47;146635;564;45916;-76
2022/11/16 11:58:00;;;;;;;;;12.00;11.75;;;;;22.70;56.91;100404.81;146634;692;46029;-75
2022/11/16 12:01:18;;;;;;;;;15.25;14.25;;;;;22.87;54.15;100398.59;146635;564;45014;-76
2022/11/16 12:04:54;;;;;;;;;8.25;6.25;;;;;22.70;57.33;100382.81;146632;623;46021;-78
2022/11/16 12:08:47;;;;;;;;;18.25;16.00;;;;;21.85;57.71;100221.94;146641;563;45018;-77
2022/11/16 12:12:37;;;;;;;;;12.25;12.00;;;;;21.28;56.20;100091.03;146638;609;45021;-76
2022/11/16 12:16:08;;;;;;;;;15.00;12.50;;;;;23.06;56.71;100379.16;146632;724;45016;-75
2022/11/16 12:19:35;;;;;;;;;14.33;11.00;;;;;22.98;57.39;100380.94;146609;645;48010;-77
2022/11/16 12:23:07;;;;;;;;;13.00;12.00;;;;;22.99;58.54;100375.66;146611;574;46016;-75
2022/11/16 12:27:00;;;;;;;;;13.75;11.75;;;;;21.90;56.89;100191.16;146615;565;45021;-74
2022/11/16 12:30:21;;;;;;;;;14.25;13.75;;;;;22.89;57.47;100359.81;146613;660;46016;-76
2022/11/16 12:33:46;;;;;;;;;13.00;13.00;;;;;22.95;56.81;100365.97;146615;566;46021;-76
2022/11/16 12:37:28;;;;;;;;;;;;;;;;;;;;;
2022/11/16 12:40:58;;;;;;;;;16.25;14.25;;;;;22.93;56.12;100359.81;146616;686;46011;-78
2022/11/16 12:44:50;;;;;;;;;11.00;11.00;;;;;22.06;54.34;100186.69;146612;645;46012;-77
2022/11/16 12:48:41;;;;;;;;;14.75;13.25;;;;;22.99;56.07;100357.16;146615;612;46020;-77
2022/11/16 12:51:52;;;;;;;;;18.00;14.00;;;;;23.02;55.51;100367.72;146614;597;46014;-77
2022/11/16 12:55:11;;;;;;;;;20.75;14.50;;;;;23.12;53.90;100368.53;146612;601;46021;-78
2022/11/16 12:58:40;;;;;;;;;14.67;13.00;;;;;22.99;51.77;100366.81;146611;564;46016;-79
2022/11/16 13:02:27;;;;;;;;;15.00;14.75;;;;;22.73;56.27;100349.31;146616;569;46021;-77
2022/11/16 13:05:46;;;;;;;;;6.67;6.67;;;;;20.90;57.07;100016.44;146611;569;47917;-78
2022/11/16 13:09:30;;;;;;;;;17.67;16.00;;;;;23.04;54.19;100358.00;146624;569;46010;-76
2022/11/16 13:12:29;;;;;;;;;17.00;14.00;;;;;23.07;50.84;100356.22;146614;700;46016;-77
2022/11/16 13:15:50;;;;;;;;;;;;;;;;;;;;;
2022/11/16 13:18:50;;;;;;;;;10.67;9.67;;;;;23.17;51.65;100347.34;146615;605;46016;-77
2022/11/16 13:22:08;;;;;;;;;13.67;12.67;;;;;23.37;51.97;100342.81;146620;583;46020;-80
2022/11/16 13:25:38;;;;;;;;;14.00;12.67;;;;;23.38;55.84;100339.25;146603;625;48014;-78
2022/11/16 13:29:07;;;;;;;;;;;;;;;;;;;;;
2022/11/16 13:32:48;;;;;;;;;12.00;12.00;;;;;22.53;55.21;100155.66;146613;599;46012;-76
2022/11/16 13:35:44;;;;;;;;;13.67;11.33;;;;;23.71;52.65;100334.63;146615;661;46020;-74
2022/11/16 13:39:02;;;;;;;;;14.00;12.33;;;;;23.76;54.48;100338.09;146613;564;46034;-77
2022/11/16 13:41:59;;;;;;;;;12.75;12.00;;;;;23.79;52.26;100332.78;146705;564;46012;-78
2022/11/16 13:44:55;;;;;;;;;13.33;12.33;;;;;23.81;51.33;100336.31;146624;605;46012;-78
2022/11/16 13:48:11;;;;;;;;;12.00;11.67;;;;;23.79;54.24;100337.19;146625;724;46010;-79
2022/11/16 13:51:21;;;;;;;;;12.00;11.33;;;;;23.78;51.24;100336.34;146620;566;46012;-79
2022/11/16 13:54:38;;;;;;;;;12.33;12.00;;;;;23.58;53.83;100330.28;146624;588;45020;-78
2022/11/16 13:57:43;;;;;;;;;15.33;13.00;;;;;23.30;52.64;100322.56;146621;588;46917;-78
2022/11/16 14:01:19;;;;;;;;;11.67;11.00;;;;;23.11;53.39;100321.81;146624;691;46021;-78
2022/11/16 14:04:59;;;;;;;;;12.00;12.00;;;;;21.76;54.42;100136.66;146620;586;46016;-80
2022/11/16 14:07:52;;;;;;;;;17.75;16.50;;;;;22.56;53.06;100325.59;146624;567;45021;-78
2022/11/16 14:11:37;;;;;;;;;13.00;13.00;;;;;21.00;53.95;100114.81;146621;676;45032;-79
2022/11/16 14:14:57;;;;;;;;;20.00;18.00;;;;;20.82;54.59;100143.81;146705;571;46022;-78
2022/11/16 14:18:00;;;;;;;;;14.00;14.00;;;;;21.53;54.52;100310.84;146619;631;46030;-78
2022/11/16 14:21:18;;;;;;;;;14.00;13.33;;;;;21.26;57.17;100315.16;146622;648;46021;-79
2022/11/16 14:25:05;;;;;;;;;12.00;12.00;;;;;19.83;55.48;100126.88;146611;650;48016;-78
2022/11/16 14:28:58;;;;;;;;;14.67;14.00;;;;;20.30;59.15;100271.84;146624;665;46010;-79
2022/11/16 14:32:27;;;;;;;;;16.75;15.25;;;;;20.64;57.94;100335.22;146617;628;46016;-79
2022/11/16 14:35:36;;;;;;;;;12.67;11.00;;;;;20.49;58.98;100343.00;146617;576;46020;-79
2022/11/16 14:39:04;;;;;;;;;;;;;;;;;;;;;
2022/11/16 14:42:22;;;;;;;;;15.75;13.00;;;;;20.14;60.91;100340.19;146620;699;46020;-80
2022/11/16 14:45:41;;;;;;;;;13.75;13.00;;;;;19.98;60.14;100336.59;146615;564;46016;-76
2022/11/16 14:48:49;;;;;;;;;14.00;12.00;;;;;19.75;60.78;100334.69;146620;569;46010;-77
2022/11/16 14:51:53;;;;;;;;;14.50;13.25;;;;;19.53;61.59;100327.44;146618;614;46016;-78
2022/11/16 14:55:04;;;;;;;;;63.00;48.00;;;;;19.31;61.67;100337.75;146622;563;46010;-79
2022/11/16 14:58:19;;;;;;;;;46.75;36.50;;;;;19.09;62.60;100330.53;146619;581;46017;-78
2022/11/16 15:01:17;;;;;;;;;37.50;32.50;;;;;18.93;63.32;100325.13;146619;598;46020;-78
2022/11/16 15:04:15;;;;;;;;;32.00;28.50;;;;;18.84;62.64;100326.75;146616;570;46917;-78
2022/11/16 15:07:08;;;;;;;;;23.50;21.00;;;;;18.76;62.31;100331.06;146619;589;46021;-79
2022/11/16 15:10:03;;;;;;;;;20.75;17.75;;;;;18.69;63.11;100328.34;146620;583;45917;-78
2022/11/16 15:13:10;;;;;;;;;24.50;20.25;;;;;18.63;63.59;100323.00;146618;634;46021;-79
2022/11/16 15:16:28;;;;;;;;;22.00;19.00;;;;;18.61;63.68;100329.09;146613;618;46012;-78
2022/11/16 15:19:29;;;;;;;;;;;;;;;;;;;;;
2022/11/16 15:22:36;;;;;;;;;23.25;21.50;;;;;18.39;64.30;100315.69;146602;588;47014;-78
2022/11/16 15:26:08;;;;;;;;;;;;;;;;;;;;;